sensor_id;sensor_type;location;lat;lon;timestamp;pressure;altitude;pressure_sealevel;temperature
45850;BMP180;10739;52.198;20.908;2022-09-12T00:01:09;99862.00;;;14.60
45850;BMP180;10739;52.198;20.908;2022-09-12T00:03:37;99855.00;;;14.50
45850;BMP180;10739;52.198;20.908;2022-09-12T00:06:19;99861.00;;;14.60
45850;BMP180;10739;52.198;20.908;2022-09-12T00:08:45;99858.00;;;14.60
45850;BMP180;10739;52.198;20.908;2022-09-12T00:11:12;99860.00;;;14.80
45850;BMP180;10739;52.198;20.908;2022-09-12T00:13:41;99864.00;;;14.60
45850;BMP180;10739;52.198;20.908;2022-09-12T00:16:19;99860.00;;;14.70
45850;BMP180;10739;52.198;20.908;2022-09-12T00:18:47;99857.00;;;14.30
45850;BMP180;10739;52.198;20.908;2022-09-12T00:21:15;99863.00;;;14.60
45850;BMP180;10739;52.198;20.908;2022-09-12T00:23:43;99855.00;;;14.50
45850;BMP180;10739;52.198;20.908;2022-09-12T00:26:10;99861.00;;;14.60
45850;BMP180;10739;52.198;20.908;2022-09-12T00:28:38;99854.00;;;14.50
45850;BMP180;10739;52.198;20.908;2022-09-12T00:31:09;99854.00;;;14.30
45850;BMP180;10739;52.198;20.908;2022-09-12T00:33:37;99853.00;;;14.50
45850;BMP180;10739;52.198;20.908;2022-09-12T00:36:06;99849.00;;;14.30
45850;BMP180;10739;52.198;20.908;2022-09-12T00:38:34;99860.00;;;14.40
45850;BMP180;10739;52.198;20.908;2022-09-12T00:41:24;99852.00;;;14.30
45850;BMP180;10739;52.198;20.908;2022-09-12T00:44:01;99849.00;;;14.10
45850;BMP180;10739;52.198;20.908;2022-09-12T00:55:11;99850.00;;;14.20
45850;BMP180;10739;52.198;20.908;2022-09-12T00:58:05;99861.00;;;13.90
45850;BMP180;10739;52.198;20.908;2022-09-12T01:00:34;99855.00;;;13.60
45850;BMP180;10739;52.198;20.908;2022-09-12T01:03:07;99859.00;;;13.70
45850;BMP180;10739;52.198;20.908;2022-09-12T01:05:38;99858.00;;;13.80
45850;BMP180;10739;52.198;20.908;2022-09-12T01:08:05;99864.00;;;14.10
45850;BMP180;10739;52.198;20.908;2022-09-12T01:10:35;99857.00;;;14.20
45850;BMP180;10739;52.198;20.908;2022-09-12T01:13:06;99862.00;;;14.00
45850;BMP180;10739;52.198;20.908;2022-09-12T01:15:35;99866.00;;;14.00
45850;BMP180;10739;52.198;20.908;2022-09-12T01:18:23;99861.00;;;13.80
45850;BMP180;10739;52.198;20.908;2022-09-12T01:24:35;99869.00;;;13.90
45850;BMP180;10739;52.198;20.908;2022-09-12T01:27:18;99870.00;;;13.80
45850;BMP180;10739;52.198;20.908;2022-09-12T01:36:14;99871.00;;;13.90
45850;BMP180;10739;52.198;20.908;2022-09-12T01:39:39;99867.00;;;13.70
45850;BMP180;10739;52.198;20.908;2022-09-12T01:47:45;99879.00;;;13.90
45850;BMP180;10739;52.198;20.908;2022-09-12T01:50:31;99878.00;;;13.90
45850;BMP180;10739;52.198;20.908;2022-09-12T01:53:07;99881.00;;;13.10
45850;BMP180;10739;52.198;20.908;2022-09-12T01:55:51;99887.00;;;13.00
45850;BMP180;10739;52.198;20.908;2022-09-12T01:58:25;99881.00;;;13.00
45850;BMP180;10739;52.198;20.908;2022-09-12T02:01:06;99893.00;;;12.80
45850;BMP180;10739;52.198;20.908;2022-09-12T02:03:44;99889.00;;;13.20
45850;BMP180;10739;52.198;20.908;2022-09-12T02:06:32;99891.00;;;13.20
45850;BMP180;10739;52.198;20.908;2022-09-12T02:12:24;99884.00;;;12.90
45850;BMP180;10739;52.198;20.908;2022-09-12T02:15:03;99879.00;;;13.30
45850;BMP180;10739;52.198;20.908;2022-09-12T02:17:39;99875.00;;;13.30
45850;BMP180;10739;52.198;20.908;2022-09-12T02:20:28;99873.00;;;13.60
45850;BMP180;10739;52.198;20.908;2022-09-12T02:22:56;99891.00;;;13.50
45850;BMP180;10739;52.198;20.908;2022-09-12T02:25:24;99880.00;;;13.30
45850;BMP180;10739;52.198;20.908;2022-09-12T02:28:01;99886.00;;;12.90
45850;BMP180;10739;52.198;20.908;2022-09-12T02:30:34;99884.00;;;13.40
45850;BMP180;10739;52.198;20.908;2022-09-12T02:36:45;99902.00;;;13.20
45850;BMP180;10739;52.198;20.908;2022-09-12T02:39:11;99880.00;;;13.00
45850;BMP180;10739;52.198;20.908;2022-09-12T02:41:37;99887.00;;;13.30
45850;BMP180;10739;52.198;20.908;2022-09-12T02:44:05;99893.00;;;13.40
45850;BMP180;10739;52.198;20.908;2022-09-12T02:46:40;99884.00;;;13.20
45850;BMP180;10739;52.198;20.908;2022-09-12T02:49:09;99896.00;;;13.50
45850;BMP180;10739;52.198;20.908;2022-09-12T02:51:36;99897.00;;;13.50
45850;BMP180;10739;52.198;20.908;2022-09-12T02:54:02;99894.00;;;13.10
45850;BMP180;10739;52.198;20.908;2022-09-12T02:56:31;99898.00;;;13.30
45850;BMP180;10739;52.198;20.908;2022-09-12T02:59:05;99904.00;;;12.80
45850;BMP180;10739;52.198;20.908;2022-09-12T03:04:36;99900.00;;;12.90
45850;BMP180;10739;52.198;20.908;2022-09-12T03:07:27;99902.00;;;13.30
45850;BMP180;10739;52.198;20.908;2022-09-12T03:12:47;99913.00;;;13.40
45850;BMP180;10739;52.198;20.908;2022-09-12T03:16:08;99921.00;;;13.20
45850;BMP180;10739;52.198;20.908;2022-09-12T03:26:54;99920.00;;;13.40
45850;BMP180;10739;52.198;20.908;2022-09-12T03:29:23;99932.00;;;13.20
45850;BMP180;10739;52.198;20.908;2022-09-12T03:31:56;99929.00;;;13.00
45850;BMP180;10739;52.198;20.908;2022-09-12T03:34:25;99938.00;;;13.10
45850;BMP180;10739;52.198;20.908;2022-09-12T03:36:53;99933.00;;;13.10
45850;BMP180;10739;52.198;20.908;2022-09-12T03:39:23;99940.00;;;13.30
45850;BMP180;10739;52.198;20.908;2022-09-12T03:41:52;99926.00;;;13.60
45850;BMP180;10739;52.198;20.908;2022-09-12T03:44:19;99937.00;;;13.40
45850;BMP180;10739;52.198;20.908;2022-09-12T03:46:45;99940.00;;;13.60
45850;BMP180;10739;52.198;20.908;2022-09-12T03:49:12;99938.00;;;13.80
45850;BMP180;10739;52.198;20.908;2022-09-12T03:51:41;99950.00;;;13.60
45850;BMP180;10739;52.198;20.908;2022-09-12T03:54:09;99943.00;;;13.10
45850;BMP180;10739;52.198;20.908;2022-09-12T03:56:35;99943.00;;;13.50
45850;BMP180;10739;52.198;20.908;2022-09-12T03:59:05;99955.00;;;13.10
45850;BMP180;10739;52.198;20.908;2022-09-12T04:01:32;99941.00;;;13.40
45850;BMP180;10739;52.198;20.908;2022-09-12T04:03:58;99949.00;;;12.90
45850;BMP180;10739;52.198;20.908;2022-09-12T04:06:24;99947.00;;;13.40
45850;BMP180;10739;52.198;20.908;2022-09-12T04:08:54;99940.00;;;13.20
45850;BMP180;10739;52.198;20.908;2022-09-12T04:11:21;99943.00;;;13.20
45850;BMP180;10739;52.198;20.908;2022-09-12T04:13:48;99948.00;;;12.90
45850;BMP180;10739;52.198;20.908;2022-09-12T04:16:15;99948.00;;;13.00
45850;BMP180;10739;52.198;20.908;2022-09-12T04:18:42;99950.00;;;12.60
45850;BMP180;10739;52.198;20.908;2022-09-12T04:21:17;99960.00;;;13.10
45850;BMP180;10739;52.198;20.908;2022-09-12T04:23:44;99957.00;;;12.70
45850;BMP180;10739;52.198;20.908;2022-09-12T04:26:11;99959.00;;;12.80
45850;BMP180;10739;52.198;20.908;2022-09-12T04:28:39;99958.00;;;12.90
45850;BMP180;10739;52.198;20.908;2022-09-12T04:31:10;99962.00;;;12.50
45850;BMP180;10739;52.198;20.908;2022-09-12T04:33:38;99960.00;;;12.40
45850;BMP180;10739;52.198;20.908;2022-09-12T04:36:10;99962.00;;;12.50
45850;BMP180;10739;52.198;20.908;2022-09-12T04:38:39;99964.00;;;12.40
45850;BMP180;10739;52.198;20.908;2022-09-12T04:41:24;99972.00;;;12.50
45850;BMP180;10739;52.198;20.908;2022-09-12T04:43:54;99962.00;;;12.80
45850;BMP180;10739;52.198;20.908;2022-09-12T04:46:24;99967.00;;;12.80
45850;BMP180;10739;52.198;20.908;2022-09-12T04:48:50;99960.00;;;12.40
45850;BMP180;10739;52.198;20.908;2022-09-12T04:51:22;99958.00;;;12.70
45850;BMP180;10739;52.198;20.908;2022-09-12T04:53:57;99968.00;;;12.50
45850;BMP180;10739;52.198;20.908;2022-09-12T04:56:25;99966.00;;;13.00
45850;BMP180;10739;52.198;20.908;2022-09-12T04:58:52;99970.00;;;13.20
45850;BMP180;10739;52.198;20.908;2022-09-12T05:01:20;99968.00;;;13.30
45850;BMP180;10739;52.198;20.908;2022-09-12T05:03:49;99979.00;;;13.40
45850;BMP180;10739;52.198;20.908;2022-09-12T05:06:23;99973.00;;;13.40
45850;BMP180;10739;52.198;20.908;2022-09-12T05:08:51;99971.00;;;13.50
45850;BMP180;10739;52.198;20.908;2022-09-12T05:11:21;99974.00;;;13.40
45850;BMP180;10739;52.198;20.908;2022-09-12T05:13:48;99974.00;;;13.50
45850;BMP180;10739;52.198;20.908;2022-09-12T05:16:16;99979.00;;;13.50
45850;BMP180;10739;52.198;20.908;2022-09-12T05:18:44;99983.00;;;13.40
45850;BMP180;10739;52.198;20.908;2022-09-12T05:21:15;99978.00;;;13.10
45850;BMP180;10739;52.198;20.908;2022-09-12T05:23:41;99996.00;;;13.10
45850;BMP180;10739;52.198;20.908;2022-09-12T05:26:13;99996.00;;;13.20
45850;BMP180;10739;52.198;20.908;2022-09-12T05:28:40;99994.00;;;13.40
45850;BMP180;10739;52.198;20.908;2022-09-12T05:31:16;99988.00;;;13.60
45850;BMP180;10739;52.198;20.908;2022-09-12T05:33:46;100002.00;;;13.20
45850;BMP180;10739;52.198;20.908;2022-09-12T05:36:16;99991.00;;;13.30
45850;BMP180;10739;52.198;20.908;2022-09-12T05:38:43;100004.00;;;13.40
45850;BMP180;10739;52.198;20.908;2022-09-12T05:41:23;99995.00;;;13.50
45850;BMP180;10739;52.198;20.908;2022-09-12T05:43:55;100006.00;;;13.40
45850;BMP180;10739;52.198;20.908;2022-09-12T05:46:26;99998.00;;;13.80
45850;BMP180;10739;52.198;20.908;2022-09-12T05:48:54;100002.00;;;13.30
45850;BMP180;10739;52.198;20.908;2022-09-12T05:51:29;100002.00;;;13.60
45850;BMP180;10739;52.198;20.908;2022-09-12T05:53:59;100004.00;;;13.80
45850;BMP180;10739;52.198;20.908;2022-09-12T05:56:28;100013.00;;;13.90
45850;BMP180;10739;52.198;20.908;2022-09-12T05:59:10;100002.00;;;13.90
45850;BMP180;10739;52.198;20.908;2022-09-12T06:01:37;99995.00;;;13.80
45850;BMP180;10739;52.198;20.908;2022-09-12T06:04:05;100004.00;;;13.80
45850;BMP180;10739;52.198;20.908;2022-09-12T06:06:39;99999.00;;;13.70
45850;BMP180;10739;52.198;20.908;2022-09-12T06:09:15;99995.00;;;13.70
45850;BMP180;10739;52.198;20.908;2022-09-12T06:11:42;100001.00;;;13.90
45850;BMP180;10739;52.198;20.908;2022-09-12T06:14:11;100000.00;;;14.00
45850;BMP180;10739;52.198;20.908;2022-09-12T06:16:39;99996.00;;;13.50
45850;BMP180;10739;52.198;20.908;2022-09-12T06:19:12;99996.00;;;13.60
45850;BMP180;10739;52.198;20.908;2022-09-12T06:21:39;100001.00;;;13.70
45850;BMP180;10739;52.198;20.908;2022-09-12T06:24:06;99995.00;;;13.60
45850;BMP180;10739;52.198;20.908;2022-09-12T06:26:32;100004.00;;;13.80
45850;BMP180;10739;52.198;20.908;2022-09-12T06:29:00;100001.00;;;13.70
45850;BMP180;10739;52.198;20.908;2022-09-12T06:31:31;100004.00;;;13.90
45850;BMP180;10739;52.198;20.908;2022-09-12T06:34:02;99994.00;;;13.50
45850;BMP180;10739;52.198;20.908;2022-09-12T06:36:32;100005.00;;;13.70
45850;BMP180;10739;52.198;20.908;2022-09-12T06:39:04;100009.00;;;14.00
45850;BMP180;10739;52.198;20.908;2022-09-12T06:41:31;100015.00;;;13.90
45850;BMP180;10739;52.198;20.908;2022-09-12T06:43:59;100014.00;;;13.80
45850;BMP180;10739;52.198;20.908;2022-09-12T06:46:26;100006.00;;;13.70
45850;BMP180;10739;52.198;20.908;2022-09-12T06:48:55;100007.00;;;14.00
45850;BMP180;10739;52.198;20.908;2022-09-12T06:51:21;100011.00;;;13.70
45850;BMP180;10739;52.198;20.908;2022-09-12T06:53:48;99997.00;;;14.20
45850;BMP180;10739;52.198;20.908;2022-09-12T06:56:20;100011.00;;;14.40
45850;BMP180;10739;52.198;20.908;2022-09-12T06:58:49;100015.00;;;14.60
45850;BMP180;10739;52.198;20.908;2022-09-12T07:03:53;100008.00;;;14.40
45850;BMP180;10739;52.198;20.908;2022-09-12T07:06:24;100012.00;;;14.50
45850;BMP180;10739;52.198;20.908;2022-09-12T07:08:59;100012.00;;;14.50
45850;BMP180;10739;52.198;20.908;2022-09-12T07:11:31;100015.00;;;14.10
45850;BMP180;10739;52.198;20.908;2022-09-12T07:13:59;100013.00;;;14.50
45850;BMP180;10739;52.198;20.908;2022-09-12T07:16:27;100022.00;;;13.80
45850;BMP180;10739;52.198;20.908;2022-09-12T07:19:00;100019.00;;;14.40
45850;BMP180;10739;52.198;20.908;2022-09-12T07:21:28;100033.00;;;14.70
45850;BMP180;10739;52.198;20.908;2022-09-12T07:23:55;100022.00;;;14.30
45850;BMP180;10739;52.198;20.908;2022-09-12T07:26:25;100033.00;;;14.40
45850;BMP180;10739;52.198;20.908;2022-09-12T07:28:53;100026.00;;;14.70
45850;BMP180;10739;52.198;20.908;2022-09-12T07:31:26;100034.00;;;14.80
45850;BMP180;10739;52.198;20.908;2022-09-12T07:33:53;100040.00;;;15.00
45850;BMP180;10739;52.198;20.908;2022-09-12T07:36:22;100048.00;;;14.90
45850;BMP180;10739;52.198;20.908;2022-09-12T07:38:54;100050.00;;;15.00
45850;BMP180;10739;52.198;20.908;2022-09-12T07:41:28;100049.00;;;14.80
45850;BMP180;10739;52.198;20.908;2022-09-12T07:43:57;100046.00;;;14.30
45850;BMP180;10739;52.198;20.908;2022-09-12T07:46:25;100059.00;;;14.80
45850;BMP180;10739;52.198;20.908;2022-09-12T07:48:54;100064.00;;;14.90
45850;BMP180;10739;52.198;20.908;2022-09-12T07:51:22;100063.00;;;14.80
45850;BMP180;10739;52.198;20.908;2022-09-12T07:53:48;100054.00;;;14.90
45850;BMP180;10739;52.198;20.908;2022-09-12T07:56:16;100060.00;;;15.20
45850;BMP180;10739;52.198;20.908;2022-09-12T07:58:43;100075.00;;;15.20
45850;BMP180;10739;52.198;20.908;2022-09-12T08:01:19;100064.00;;;15.20
45850;BMP180;10739;52.198;20.908;2022-09-12T08:03:49;100070.00;;;15.20
45850;BMP180;10739;52.198;20.908;2022-09-12T08:06:21;100075.00;;;15.20
45850;BMP180;10739;52.198;20.908;2022-09-12T08:08:53;100069.00;;;15.30
45850;BMP180;10739;52.198;20.908;2022-09-12T08:11:21;100070.00;;;15.10
45850;BMP180;10739;52.198;20.908;2022-09-12T08:13:48;100074.00;;;14.80
45850;BMP180;10739;52.198;20.908;2022-09-12T08:16:21;100079.00;;;14.60
45850;BMP180;10739;52.198;20.908;2022-09-12T08:18:48;100073.00;;;15.10
45850;BMP180;10739;52.198;20.908;2022-09-12T08:21:22;100085.00;;;15.50
45850;BMP180;10739;52.198;20.908;2022-09-12T08:23:54;100081.00;;;15.40
45850;BMP180;10739;52.198;20.908;2022-09-12T08:26:21;100080.00;;;15.80
45850;BMP180;10739;52.198;20.908;2022-09-12T08:28:48;100067.00;;;15.20
45850;BMP180;10739;52.198;20.908;2022-09-12T08:31:17;100074.00;;;15.30
45850;BMP180;10739;52.198;20.908;2022-09-12T08:33:44;100080.00;;;15.50
45850;BMP180;10739;52.198;20.908;2022-09-12T08:36:18;100084.00;;;15.80
45850;BMP180;10739;52.198;20.908;2022-09-12T08:38:49;100085.00;;;15.50
45850;BMP180;10739;52.198;20.908;2022-09-12T08:41:29;100084.00;;;15.60
45850;BMP180;10739;52.198;20.908;2022-09-12T08:49:52;100087.00;;;15.80
45850;BMP180;10739;52.198;20.908;2022-09-12T08:58:21;100093.00;;;16.20
45850;BMP180;10739;52.198;20.908;2022-09-12T09:01:23;100083.00;;;16.30
45850;BMP180;10739;52.198;20.908;2022-09-12T09:07:16;100089.00;;;16.20
45850;BMP180;10739;52.198;20.908;2022-09-12T09:16:43;100095.00;;;16.80
45850;BMP180;10739;52.198;20.908;2022-09-12T09:19:20;100088.00;;;16.60
45850;BMP180;10739;52.198;20.908;2022-09-12T09:21:56;100090.00;;;16.10
45850;BMP180;10739;52.198;20.908;2022-09-12T09:24:40;100099.00;;;16.80
45850;BMP180;10739;52.198;20.908;2022-09-12T09:27:33;100094.00;;;17.00
45850;BMP180;10739;52.198;20.908;2022-09-12T09:30:01;100095.00;;;16.90
45850;BMP180;10739;52.198;20.908;2022-09-12T09:32:37;100090.00;;;16.40
45850;BMP180;10739;52.198;20.908;2022-09-12T09:35:25;100103.00;;;16.70
45850;BMP180;10739;52.198;20.908;2022-09-12T09:38:05;100089.00;;;17.00
45850;BMP180;10739;52.198;20.908;2022-09-12T09:40:44;100093.00;;;17.00
45850;BMP180;10739;52.198;20.908;2022-09-12T09:43:23;100104.00;;;16.70
45850;BMP180;10739;52.198;20.908;2022-09-12T09:45:51;100104.00;;;16.50
45850;BMP180;10739;52.198;20.908;2022-09-12T09:48:21;100101.00;;;16.50
45850;BMP180;10739;52.198;20.908;2022-09-12T09:50:49;100117.00;;;16.70
45850;BMP180;10739;52.198;20.908;2022-09-12T09:53:39;100106.00;;;16.90
45850;BMP180;10739;52.198;20.908;2022-09-12T09:59:30;100106.00;;;17.30
45850;BMP180;10739;52.198;20.908;2022-09-12T10:02:24;100111.00;;;16.90
45850;BMP180;10739;52.198;20.908;2022-09-12T10:04:57;100110.00;;;16.60
45850;BMP180;10739;52.198;20.908;2022-09-12T10:07:25;100121.00;;;16.60
45850;BMP180;10739;52.198;20.908;2022-09-12T10:10:13;100131.00;;;16.90
45850;BMP180;10739;52.198;20.908;2022-09-12T10:12:40;100129.00;;;17.00
45850;BMP180;10739;52.198;20.908;2022-09-12T10:15:33;100132.00;;;17.00
45850;BMP180;10739;52.198;20.908;2022-09-12T10:18:00;100119.00;;;17.20
45850;BMP180;10739;52.198;20.908;2022-09-12T10:20:43;100130.00;;;16.80
45850;BMP180;10739;52.198;20.908;2022-09-12T10:23:37;100141.00;;;16.90
45850;BMP180;10739;52.198;20.908;2022-09-12T10:26:13;100135.00;;;17.10
45850;BMP180;10739;52.198;20.908;2022-09-12T10:28:49;100143.00;;;17.20
45850;BMP180;10739;52.198;20.908;2022-09-12T10:31:26;100136.00;;;17.10
45850;BMP180;10739;52.198;20.908;2022-09-12T10:33:59;100135.00;;;17.10
45850;BMP180;10739;52.198;20.908;2022-09-12T10:36:38;100149.00;;;16.80
45850;BMP180;10739;52.198;20.908;2022-09-12T10:39:05;100148.00;;;16.80
45850;BMP180;10739;52.198;20.908;2022-09-12T10:41:38;100155.00;;;16.80
45850;BMP180;10739;52.198;20.908;2022-09-12T10:44:12;100145.00;;;17.10
45850;BMP180;10739;52.198;20.908;2022-09-12T10:46:40;100143.00;;;17.10
45850;BMP180;10739;52.198;20.908;2022-09-12T10:49:31;100142.00;;;17.50
45850;BMP180;10739;52.198;20.908;2022-09-12T10:52:32;100149.00;;;17.00
45850;BMP180;10739;52.198;20.908;2022-09-12T10:54:58;100147.00;;;17.30
45850;BMP180;10739;52.198;20.908;2022-09-12T10:58:03;100153.00;;;16.80
45850;BMP180;10739;52.198;20.908;2022-09-12T11:00:39;100155.00;;;17.30
45850;BMP180;10739;52.198;20.908;2022-09-12T11:03:23;100149.00;;;17.30
45850;BMP180;10739;52.198;20.908;2022-09-12T11:06:00;100154.00;;;17.20
45850;BMP180;10739;52.198;20.908;2022-09-12T11:08:53;100151.00;;;17.50
45850;BMP180;10739;52.198;20.908;2022-09-12T11:14:40;100161.00;;;17.70
45850;BMP180;10739;52.198;20.908;2022-09-12T11:31:55;100158.00;;;17.80
45850;BMP180;10739;52.198;20.908;2022-09-12T11:40:52;100156.00;;;17.90
45850;BMP180;10739;52.198;20.908;2022-09-12T11:46:38;100154.00;;;17.80
45850;BMP180;10739;52.198;20.908;2022-09-12T11:52:12;100164.00;;;17.90
45850;BMP180;10739;52.198;20.908;2022-09-12T12:00:02;100165.00;;;17.60
45850;BMP180;10739;52.198;20.908;2022-09-12T12:05:23;100169.00;;;17.70
45850;BMP180;10739;52.198;20.908;2022-09-12T12:07:58;100175.00;;;17.60
45850;BMP180;10739;52.198;20.908;2022-09-12T12:10:37;100162.00;;;17.80
45850;BMP180;10739;52.198;20.908;2022-09-12T12:13:37;100160.00;;;17.80
45850;BMP180;10739;52.198;20.908;2022-09-12T12:16:17;100155.00;;;17.90
45850;BMP180;10739;52.198;20.908;2022-09-12T12:18:56;100165.00;;;18.20
45850;BMP180;10739;52.198;20.908;2022-09-12T12:21:44;100169.00;;;18.30
45850;BMP180;10739;52.198;20.908;2022-09-12T12:34:30;100172.00;;;18.60
45850;BMP180;10739;52.198;20.908;2022-09-12T12:47:58;100171.00;;;18.40
45850;BMP180;10739;52.198;20.908;2022-09-12T12:50:30;100168.00;;;18.10
45850;BMP180;10739;52.198;20.908;2022-09-12T12:53:05;100170.00;;;18.00
45850;BMP180;10739;52.198;20.908;2022-09-12T12:55:48;100175.00;;;17.80
45850;BMP180;10739;52.198;20.908;2022-09-12T13:06:40;100180.00;;;17.80
45850;BMP180;10739;52.198;20.908;2022-09-12T13:09:53;100182.00;;;18.00
45850;BMP180;10739;52.198;20.908;2022-09-12T13:12:46;100185.00;;;18.30
45850;BMP180;10739;52.198;20.908;2022-09-12T13:21:13;100179.00;;;17.90
45850;BMP180;10739;52.198;20.908;2022-09-12T13:23:40;100172.00;;;18.00
45850;BMP180;10739;52.198;20.908;2022-09-12T13:26:23;100188.00;;;18.20
45850;BMP180;10739;52.198;20.908;2022-09-12T13:29:08;100184.00;;;18.20
45850;BMP180;10739;52.198;20.908;2022-09-12T13:31:34;100179.00;;;18.00
45850;BMP180;10739;52.198;20.908;2022-09-12T13:34:08;100181.00;;;18.20
45850;BMP180;10739;52.198;20.908;2022-09-12T13:42:40;100179.00;;;18.70
45850;BMP180;10739;52.198;20.908;2022-09-12T13:45:26;100167.00;;;18.80
45850;BMP180;10739;52.198;20.908;2022-09-12T13:47:59;100179.00;;;18.70
45850;BMP180;10739;52.198;20.908;2022-09-12T13:50:32;100184.00;;;18.20
45850;BMP180;10739;52.198;20.908;2022-09-12T13:53:06;100176.00;;;18.20
45850;BMP180;10739;52.198;20.908;2022-09-12T13:55:59;100185.00;;;18.50
45850;BMP180;10739;52.198;20.908;2022-09-12T13:58:29;100179.00;;;18.80
45850;BMP180;10739;52.198;20.908;2022-09-12T14:01:12;100174.00;;;19.00
45850;BMP180;10739;52.198;20.908;2022-09-12T14:03:53;100183.00;;;18.90
45850;BMP180;10739;52.198;20.908;2022-09-12T14:06:50;100170.00;;;18.90
45850;BMP180;10739;52.198;20.908;2022-09-12T14:09:37;100178.00;;;19.30
45850;BMP180;10739;52.198;20.908;2022-09-12T14:14:54;100180.00;;;19.10
45850;BMP180;10739;52.198;20.908;2022-09-12T14:17:36;100180.00;;;19.20
45850;BMP180;10739;52.198;20.908;2022-09-12T14:20:17;100185.00;;;19.40
45850;BMP180;10739;52.198;20.908;2022-09-12T14:22:46;100170.00;;;19.20
45850;BMP180;10739;52.198;20.908;2022-09-12T14:25:23;100173.00;;;19.40
45850;BMP180;10739;52.198;20.908;2022-09-12T14:27:56;100173.00;;;19.50
45850;BMP180;10739;52.198;20.908;2022-09-12T14:30:30;100176.00;;;19.50
45850;BMP180;10739;52.198;20.908;2022-09-12T14:35:44;100180.00;;;19.50
45850;BMP180;10739;52.198;20.908;2022-09-12T14:40:52;100181.00;;;19.40
45850;BMP180;10739;52.198;20.908;2022-09-12T14:43:33;100182.00;;;19.70
45850;BMP180;10739;52.198;20.908;2022-09-12T14:46:04;100178.00;;;19.70
45850;BMP180;10739;52.198;20.908;2022-09-12T14:48:43;100183.00;;;19.90
45850;BMP180;10739;52.198;20.908;2022-09-12T14:51:27;100178.00;;;19.50
45850;BMP180;10739;52.198;20.908;2022-09-12T14:53:56;100181.00;;;19.80
45850;BMP180;10739;52.198;20.908;2022-09-12T14:56:44;100176.00;;;19.60
45850;BMP180;10739;52.198;20.908;2022-09-12T15:07:42;100187.00;;;19.10
45850;BMP180;10739;52.198;20.908;2022-09-12T15:10:33;100184.00;;;19.10
45850;BMP180;10739;52.198;20.908;2022-09-12T15:13:13;100184.00;;;19.30
45850;BMP180;10739;52.198;20.908;2022-09-12T15:15:52;100187.00;;;19.40
45850;BMP180;10739;52.198;20.908;2022-09-12T15:18:20;100184.00;;;19.20
45850;BMP180;10739;52.198;20.908;2022-09-12T15:20:51;100185.00;;;19.20
45850;BMP180;10739;52.198;20.908;2022-09-12T15:23:45;100184.00;;;19.30
45850;BMP180;10739;52.198;20.908;2022-09-12T15:26:20;100191.00;;;19.10
45850;BMP180;10739;52.198;20.908;2022-09-12T15:28:48;100192.00;;;19.30
45850;BMP180;10739;52.198;20.908;2022-09-12T15:31:30;100192.00;;;19.30
45850;BMP180;10739;52.198;20.908;2022-09-12T15:34:00;100197.00;;;19.50
45850;BMP180;10739;52.198;20.908;2022-09-12T15:36:28;100199.00;;;19.10
45850;BMP180;10739;52.198;20.908;2022-09-12T15:38:55;100207.00;;;19.10
45850;BMP180;10739;52.198;20.908;2022-09-12T15:41:33;100197.00;;;18.90
45850;BMP180;10739;52.198;20.908;2022-09-12T15:44:05;100201.00;;;19.00
45850;BMP180;10739;52.198;20.908;2022-09-12T15:46:33;100198.00;;;19.00
45850;BMP180;10739;52.198;20.908;2022-09-12T15:48:59;100203.00;;;19.00
45850;BMP180;10739;52.198;20.908;2022-09-12T15:51:25;100209.00;;;19.00
45850;BMP180;10739;52.198;20.908;2022-09-12T15:53:52;100200.00;;;19.20
45850;BMP180;10739;52.198;20.908;2022-09-12T15:56:20;100199.00;;;19.30
45850;BMP180;10739;52.198;20.908;2022-09-12T15:58:47;100199.00;;;19.50
45850;BMP180;10739;52.198;20.908;2022-09-12T16:01:16;100207.00;;;19.40
45850;BMP180;10739;52.198;20.908;2022-09-12T16:03:45;100198.00;;;19.40
45850;BMP180;10739;52.198;20.908;2022-09-12T16:06:12;100202.00;;;19.40
45850;BMP180;10739;52.198;20.908;2022-09-12T16:08:40;100208.00;;;19.40
45850;BMP180;10739;52.198;20.908;2022-09-12T16:11:17;100195.00;;;19.30
45850;BMP180;10739;52.198;20.908;2022-09-12T16:13:44;100201.00;;;19.00
45850;BMP180;10739;52.198;20.908;2022-09-12T16:16:10;100203.00;;;19.00
45850;BMP180;10739;52.198;20.908;2022-09-12T16:18:39;100203.00;;;19.10
45850;BMP180;10739;52.198;20.908;2022-09-12T16:21:06;100202.00;;;18.90
45850;BMP180;10739;52.198;20.908;2022-09-12T16:23:33;100201.00;;;18.80
45850;BMP180;10739;52.198;20.908;2022-09-12T16:26:04;100210.00;;;18.90
45850;BMP180;10739;52.198;20.908;2022-09-12T16:28:32;100203.00;;;18.90
45850;BMP180;10739;52.198;20.908;2022-09-12T16:31:02;100200.00;;;18.90
45850;BMP180;10739;52.198;20.908;2022-09-12T16:33:30;100202.00;;;18.70
45850;BMP180;10739;52.198;20.908;2022-09-12T16:36:12;100201.00;;;18.60
45850;BMP180;10739;52.198;20.908;2022-09-12T16:38:48;100203.00;;;18.60
45850;BMP180;10739;52.198;20.908;2022-09-12T16:41:17;100193.00;;;18.70
45850;BMP180;10739;52.198;20.908;2022-09-12T16:43:44;100200.00;;;18.50
45850;BMP180;10739;52.198;20.908;2022-09-12T16:46:15;100200.00;;;18.40
45850;BMP180;10739;52.198;20.908;2022-09-12T16:48:51;100198.00;;;18.50
45850;BMP180;10739;52.198;20.908;2022-09-12T16:51:22;100204.00;;;18.40
45850;BMP180;10739;52.198;20.908;2022-09-12T16:53:49;100204.00;;;18.40
45850;BMP180;10739;52.198;20.908;2022-09-12T16:56:15;100202.00;;;18.40
45850;BMP180;10739;52.198;20.908;2022-09-12T16:58:42;100197.00;;;18.50
45850;BMP180;10739;52.198;20.908;2022-09-12T17:01:14;100198.00;;;18.60
45850;BMP180;10739;52.198;20.908;2022-09-12T17:03:41;100213.00;;;18.60
45850;BMP180;10739;52.198;20.908;2022-09-12T17:06:16;100209.00;;;18.60
45850;BMP180;10739;52.198;20.908;2022-09-12T17:08:47;100204.00;;;18.50
45850;BMP180;10739;52.198;20.908;2022-09-12T17:11:21;100213.00;;;18.50
45850;BMP180;10739;52.198;20.908;2022-09-12T17:13:53;100212.00;;;18.40